Time;durP1;ratioP1;P1;durP2;ratioP2;P2;SDS_P1;SDS_P2;PMS_P1;PMS_P2;Temp;Humidity;BMP_temperature;BMP_pressure;BME280_temperature;BME280_humidity;BME280_pressure;Samples;Min_cycle;Max_cycle;Signal;HPM_P1;HPM_P2
2023/03/17 00:01:10;;;;;;;2.88;2.10;;;;;;;;;;5012551;28;20050;-72
2023/03/17 00:03:39;;;;;;;3.40;2.38;;;;;;;;;;4994671;28;20060;-71
2023/03/17 00:06:10;;;;;;;2.83;2.13;;;;;;;;;;5012319;28;20041;-73
2023/03/17 00:08:36;;;;;;;3.92;2.70;;;;;;;;;;5011864;28;20060;-71
2023/03/17 00:11:02;;;;;;;3.72;2.47;;;;;;;;;;5012209;28;20061;-71
2023/03/17 00:13:29;;;;;;;4.07;2.35;;;;;;;;;;5011957;28;20081;-72
2023/03/17 00:15:59;;;;;;;4.47;2.15;;;;;;;;;;5012216;28;20093;-72
2023/03/17 00:18:26;;;;;;;4.28;2.38;;;;;;;;;;5011644;28;20042;-72
2023/03/17 00:20:52;;;;;;;3.38;2.22;;;;;;;;;;5006421;28;20331;-71
2023/03/17 00:23:21;;;;;;;3.42;2.35;;;;;;;;;;5012264;28;20033;-72
2023/03/17 00:25:47;;;;;;;3.47;2.50;;;;;;;;;;5011920;28;20025;-72
2023/03/17 00:28:25;;;;;;;3.90;2.15;;;;;;;;;;5011503;28;20042;-72
2023/03/17 00:30:54;;;;;;;4.45;3.00;;;;;;;;;;5002790;28;20057;-72
2023/03/17 00:33:30;;;;;;;3.83;2.65;;;;;;;;;;4994281;28;20066;-72
2023/03/17 00:35:57;;;;;;;2.90;2.10;;;;;;;;;;5020367;28;20388;-72
2023/03/17 00:38:24;;;;;;;3.83;2.35;;;;;;;;;;5006145;28;20373;-71
2023/03/17 00:40:50;;;;;;;4.22;2.40;;;;;;;;;;5011814;28;20045;-72
2023/03/17 00:43:17;;;;;;;3.78;2.63;;;;;;;;;;5010543;28;20127;-72
2023/03/17 00:45:43;;;;;;;3.30;2.55;;;;;;;;;;5027043;28;20033;-73
2023/03/17 00:48:14;;;;;;;3.20;2.25;;;;;;;;;;5009983;28;20476;-71
2023/03/17 00:50:43;;;;;;;3.97;2.58;;;;;;;;;;5011869;28;20030;-72
2023/03/17 00:53:12;;;;;;;3.92;2.63;;;;;;;;;;5010361;28;20093;-71
2023/03/17 00:55:38;;;;;;;4.03;2.65;;;;;;;;;;4994224;28;20133;-71
2023/03/17 00:58:24;;;;;;;4.22;3.00;;;;;;;;;;5009929;28;20026;-72
2023/03/17 01:00:50;;;;;;;4.72;2.90;;;;;;;;;;5011562;28;20030;-73
2023/03/17 01:03:18;;;;;;;7.00;3.42;;;;;;;;;;5006127;28;20037;-71
2023/03/17 01:05:45;;;;;;;3.63;2.38;;;;;;;;;;5001897;28;20026;-71
2023/03/17 01:08:11;;;;;;;3.88;2.85;;;;;;;;;;5010308;28;20109;-72
2023/03/17 01:10:40;;;;;;;5.25;2.70;;;;;;;;;;5010972;28;20068;-71
2023/03/17 01:13:06;;;;;;;4.53;2.80;;;;;;;;;;5027247;28;20036;-73
2023/03/17 01:15:32;;;;;;;3.72;2.40;;;;;;;;;;5013428;28;20033;-73
2023/03/17 01:18:01;;;;;;;3.88;2.90;;;;;;;;;;5030701;28;20045;-72
2023/03/17 01:20:31;;;;;;;5.28;3.53;;;;;;;;;;5013421;28;20454;-73
2023/03/17 01:22:58;;;;;;;5.75;3.63;;;;;;;;;;5029930;28;20046;-72
2023/03/17 01:25:24;;;;;;;4.82;3.30;;;;;;;;;;5013542;28;20124;-73
2023/03/17 01:27:50;;;;;;;3.47;2.42;;;;;;;;;;5012991;28;20479;-73
2023/03/17 01:30:19;;;;;;;3.42;2.42;;;;;;;;;;5013453;28;20056;-72
2023/03/17 01:32:45;;;;;;;4.13;2.17;;;;;;;;;;5026472;28;20113;-72
2023/03/17 01:35:12;;;;;;;2.42;1.85;;;;;;;;;;4993741;28;20022;-72
2023/03/17 01:37:38;;;;;;;3.70;2.10;;;;;;;;;;5009803;28;20062;-72
2023/03/17 01:40:12;;;;;;;3.70;2.53;;;;;;;;;;5011061;28;20030;-72
2023/03/17 01:42:38;;;;;;;3.20;2.10;;;;;;;;;;5013151;28;20060;-72
2023/03/17 01:45:26;;;;;;;3.40;2.35;;;;;;;;;;5002571;28;20504;-72
2023/03/17 01:47:52;;;;;;;3.33;1.63;;;;;;;;;;5026346;28;20037;-72
2023/03/17 01:50:18;;;;;;;1.98;1.25;;;;;;;;;;5012713;28;20018;-72
2023/03/17 01:52:44;;;;;;;2.63;1.45;;;;;;;;;;4997798;28;20030;-72
2023/03/17 01:55:15;;;;;;;3.15;1.00;;;;;;;;;;5029510;28;20045;-72
2023/03/17 01:57:52;;;;;;;0.93;0.80;;;;;;;;;;5007181;28;20121;-72
2023/03/17 02:00:23;;;;;;;1.42;0.90;;;;;;;;;;5016914;28;20030;-72
2023/03/17 02:02:55;;;;;;;0.98;0.77;;;;;;;;;;5034545;28;20108;-72
2023/03/17 02:05:27;;;;;;;3.85;1.05;;;;;;;;;;5014202;28;20037;-72
2023/03/17 02:07:54;;;;;;;1.75;1.15;;;;;;;;;;5034005;28;20037;-71
2023/03/17 02:10:27;;;;;;;3.08;1.48;;;;;;;;;;5014705;28;20495;-72
2023/03/17 02:12:57;;;;;;;1.23;1.00;;;;;;;;;;5034228;28;20040;-71
2023/03/17 02:15:34;;;;;;;2.03;1.13;;;;;;;;;;5025684;28;20034;-71
2023/03/17 02:18:00;;;;;;;3.72;1.42;;;;;;;;;;5004331;28;20096;-72
2023/03/17 02:20:26;;;;;;;2.40;1.20;;;;;;;;;;5014052;28;20424;-72
2023/03/17 02:22:52;;;;;;;2.22;1.60;;;;;;;;;;5013517;28;20499;-71
2023/03/17 02:25:20;;;;;;;2.40;1.75;;;;;;;;;;5004818;28;20053;-71
2023/03/17 02:27:50;;;;;;;3.97;1.80;;;;;;;;;;4996160;28;20057;-71
2023/03/17 02:30:20;;;;;;;2.55;1.83;;;;;;;;;;4994750;28;20054;-71
2023/03/17 02:32:46;;;;;;;5.22;1.63;;;;;;;;;;5013851;28;20488;-71
2023/03/17 02:35:12;;;;;;;1.90;1.30;;;;;;;;;;5013826;28;20069;-71
2023/03/17 02:37:42;;;;;;;2.80;1.70;;;;;;;;;;5004718;28;20038;-71
2023/03/17 02:40:10;;;;;;;2.22;1.55;;;;;;;;;;5009544;28;20104;-71
2023/03/17 02:42:38;;;;;;;2.40;1.40;;;;;;;;;;4993954;28;20440;-71
2023/03/17 02:45:05;;;;;;;3.25;1.63;;;;;;;;;;5018051;28;20065;-71
2023/03/17 02:47:31;;;;;;;2.40;1.60;;;;;;;;;;5012791;28;20029;-71
2023/03/17 02:49:57;;;;;;;2.35;1.58;;;;;;;;;;5014512;28;20030;-71
2023/03/17 02:52:23;;;;;;;3.50;1.80;;;;;;;;;;5013231;28;20073;-71
2023/03/17 02:54:49;;;;;;;3.45;1.83;;;;;;;;;;5028598;28;20033;-71
2023/03/17 02:57:15;;;;;;;3.20;2.20;;;;;;;;;;5032871;28;20364;-71
2023/03/17 02:59:41;;;;;;;2.38;1.70;;;;;;;;;;5014487;28;20044;-71
2023/03/17 03:02:07;;;;;;;4.00;2.10;;;;;;;;;;5032865;28;20041;-71
2023/03/17 03:04:33;;;;;;;3.38;1.92;;;;;;;;;;5032578;28;20633;-70
2023/03/17 03:06:59;;;;;;;3.33;1.90;;;;;;;;;;5032797;28;20021;-71
2023/03/17 03:09:25;;;;;;;4.03;2.20;;;;;;;;;;5022534;28;20048;-72
2023/03/17 03:11:51;;;;;;;3.35;2.20;;;;;;;;;;5012999;28;20026;-72
2023/03/17 03:14:16;;;;;;;3.15;2.08;;;;;;;;;;5020699;28;20120;-72
2023/03/17 03:16:42;;;;;;;3.50;2.10;;;;;;;;;;5029116;28;20872;-72
2023/03/17 03:19:08;;;;;;;3.45;2.03;;;;;;;;;;5012819;28;20483;-71
2023/03/17 03:21:35;;;;;;;3.25;2.28;;;;;;;;;;5013469;28;20037;-72
2023/03/17 03:24:01;;;;;;;5.95;2.70;;;;;;;;;;5013081;28;20044;-73
2023/03/17 03:26:27;;;;;;;4.68;2.97;;;;;;;;;;5012638;28;20029;-72
2023/03/17 03:28:53;;;;;;;3.88;2.92;;;;;;;;;;5010981;28;20029;-72
2023/03/17 03:31:18;;;;;;;5.00;2.97;;;;;;;;;;5012271;28;20036;-71
2023/03/17 03:33:45;;;;;;;4.10;2.95;;;;;;;;;;5012852;28;20046;-70
2023/03/17 03:36:10;;;;;;;3.97;2.47;;;;;;;;;;5012572;28;20056;-73
2023/03/17 03:38:36;;;;;;;3.42;2.75;;;;;;;;;;5013015;28;20455;-72
2023/03/17 03:41:02;;;;;;;3.83;2.42;;;;;;;;;;5031976;28;20032;-71
2023/03/17 03:43:27;;;;;;;4.72;3.03;;;;;;;;;;5032060;28;20045;-72
2023/03/17 03:45:53;;;;;;;5.75;2.85;;;;;;;;;;4992701;28;20381;-72
2023/03/17 03:48:20;;;;;;;5.38;2.60;;;;;;;;;;4992675;28;20506;-71
2023/03/17 03:50:46;;;;;;;4.45;3.00;;;;;;;;;;5030330;28;20033;-72
2023/03/17 03:53:14;;;;;;;5.93;3.10;;;;;;;;;;5032470;28;20037;-73
2023/03/17 03:55:40;;;;;;;4.28;2.90;;;;;;;;;;5015278;28;20026;-72
2023/03/17 03:58:06;;;;;;;5.43;3.35;;;;;;;;;;5011890;28;20389;-72
2023/03/17 04:00:32;;;;;;;5.68;2.90;;;;;;;;;;5012021;28;20071;-72
2023/03/17 04:02:59;;;;;;;5.18;3.40;;;;;;;;;;4994215;28;20037;-72
2023/03/17 04:05:24;;;;;;;4.00;3.03;;;;;;;;;;5012008;28;20112;-73
2023/03/17 04:07:50;;;;;;;4.85;3.40;;;;;;;;;;5011801;28;20104;-73
2023/03/17 04:10:16;;;;;;;4.70;2.90;;;;;;;;;;5031178;28;20030;-71
2023/03/17 04:12:42;;;;;;;5.25;3.50;;;;;;;;;;5031611;28;20040;-71
2023/03/17 04:15:10;;;;;;;6.65;3.50;;;;;;;;;;5018188;28;20025;-71
2023/03/17 04:17:36;;;;;;;5.97;3.45;;;;;;;;;;5011154;28;20487;-72
2023/03/17 04:20:02;;;;;;;4.70;3.50;;;;;;;;;;5025701;28;20104;-71
2023/03/17 04:22:27;;;;;;;3.75;2.78;;;;;;;;;;5031339;28;20041;-73
2023/03/17 04:24:53;;;;;;;4.40;2.78;;;;;;;;;;5028753;28;20056;-71
2023/03/17 04:27:19;;;;;;;5.90;3.15;;;;;;;;;;5031339;28;20037;-71
2023/03/17 04:29:45;;;;;;;5.03;3.67;;;;;;;;;;5022841;28;20109;-71
2023/03/17 04:32:12;;;;;;;5.18;3.63;;;;;;;;;;5011845;28;20026;-72
2023/03/17 04:34:38;;;;;;;4.93;3.85;;;;;;;;;;5018468;28;20080;-70
2023/03/17 04:37:04;;;;;;;8.73;4.25;;;;;;;;;;5011984;28;20673;-71
2023/03/17 04:39:30;;;;;;;5.47;4.05;;;;;;;;;;5020189;28;20040;-71
2023/03/17 04:41:56;;;;;;;5.90;3.80;;;;;;;;;;5031017;28;20140;-71
2023/03/17 04:44:22;;;;;;;4.90;3.50;;;;;;;;;;5029648;28;20022;-71
2023/03/17 04:46:47;;;;;;;6.10;3.60;;;;;;;;;;5031146;28;20045;-71
2023/03/17 04:49:13;;;;;;;4.97;3.65;;;;;;;;;;5012609;28;20029;-71
2023/03/17 04:51:40;;;;;;;6.20;4.00;;;;;;;;;;5017637;28;20480;-71
2023/03/17 04:54:05;;;;;;;8.75;6.82;;;;;;;;;;4994296;28;20025;-72
2023/03/17 04:56:31;;;;;;;9.68;4.35;;;;;;;;;;5030843;28;20041;-72
2023/03/17 04:58:57;;;;;;;6.15;4.38;;;;;;;;;;5028815;28;20403;-73
2023/03/17 05:01:23;;;;;;;5.38;4.03;;;;;;;;;;5005929;28;20499;-72
2023/03/17 05:03:48;;;;;;;7.88;4.07;;;;;;;;;;5014990;28;20100;-72
2023/03/17 05:06:15;;;;;;;6.93;4.00;;;;;;;;;;5011983;28;20119;-73
2023/03/17 05:08:43;;;;;;;5.25;3.80;;;;;;;;;;5007815;28;20077;-72
2023/03/17 05:11:10;;;;;;;7.78;4.85;;;;;;;;;;4997971;28;20517;-71
2023/03/17 05:13:36;;;;;;;10.60;5.10;;;;;;;;;;5022086;28;20065;-71
2023/03/17 05:16:02;;;;;;;7.80;4.60;;;;;;;;;;5012335;28;20104;-72
2023/03/17 05:18:27;;;;;;;9.13;4.90;;;;;;;;;;5009488;28;20387;-72
2023/03/17 05:20:53;;;;;;;7.72;4.78;;;;;;;;;;5008323;28;20029;-73
2023/03/17 05:23:21;;;;;;;5.85;4.20;;;;;;;;;;5013273;28;20457;-72
2023/03/17 05:25:47;;;;;;;6.32;4.25;;;;;;;;;;5025282;28;20044;-72
2023/03/17 05:28:13;;;;;;;5.93;4.03;;;;;;;;;;5012554;28;20018;-72
2023/03/17 05:30:39;;;;;;;5.47;4.10;;;;;;;;;;5011189;28;20064;-72
2023/03/17 05:33:05;;;;;;;8.25;4.85;;;;;;;;;;4996567;28;20053;-71
2023/03/17 05:35:30;;;;;;;11.23;5.35;;;;;;;;;;5012907;28;20084;-71
2023/03/17 05:37:56;;;;;;;9.23;4.93;;;;;;;;;;5011713;28;20490;-71
2023/03/17 05:40:22;;;;;;;10.35;4.88;;;;;;;;;;5014184;28;20372;-73
2023/03/17 05:42:51;;;;;;;6.53;3.88;;;;;;;;;;5012276;28;20034;-72
2023/03/17 05:45:17;;;;;;;5.90;4.00;;;;;;;;;;5006552;28;20060;-73
2023/03/17 05:47:43;;;;;;;6.25;3.92;;;;;;;;;;5010617;28;20464;-72
2023/03/17 05:50:10;;;;;;;6.82;4.50;;;;;;;;;;4992378;28;20025;-73
2023/03/17 05:52:36;;;;;;;7.82;4.40;;;;;;;;;;5012145;28;20392;-74
2023/03/17 05:55:04;;;;;;;7.28;4.63;;;;;;;;;;5013345;28;20145;-73
2023/03/17 05:57:30;;;;;;;6.03;4.07;;;;;;;;;;5013947;28;20026;-73
2023/03/17 05:59:56;;;;;;;5.00;3.63;;;;;;;;;;5005141;28;20087;-72
2023/03/17 06:02:22;;;;;;;7.10;4.47;;;;;;;;;;5012574;28;20037;-74
2023/03/17 06:05:13;;;;;;;6.25;4.05;;;;;;;;;;4987389;28;20548;-74
2023/03/17 06:07:40;;;;;;;8.73;4.90;;;;;;;;;;5011761;28;20112;-72
2023/03/17 06:10:06;;;;;;;7.57;4.75;;;;;;;;;;5012251;28;20548;-74
2023/03/17 06:12:32;;;;;;;5.55;3.95;;;;;;;;;;5012217;28;20029;-72
2023/03/17 06:14:58;;;;;;;7.13;4.35;;;;;;;;;;4995676;28;20384;-73
2023/03/17 06:17:25;;;;;;;6.18;4.30;;;;;;;;;;4996592;28;20488;-74
2023/03/17 06:19:50;;;;;;;5.82;4.22;;;;;;;;;;5013139;28;20656;-74
2023/03/17 06:22:16;;;;;;;5.75;3.90;;;;;;;;;;4995589;28;20120;-73
2023/03/17 06:24:42;;;;;;;7.57;4.47;;;;;;;;;;4995943;28;20077;-73
2023/03/17 06:27:09;;;;;;;9.95;5.47;;;;;;;;;;4995735;28;20502;-72
2023/03/17 06:29:36;;;;;;;7.50;4.65;;;;;;;;;;5013182;28;20100;-73
2023/03/17 06:32:03;;;;;;;6.78;4.55;;;;;;;;;;4995380;28;20157;-71
2023/03/17 06:34:29;;;;;;;7.93;6.25;;;;;;;;;;5012634;28;20468;-71
2023/03/17 06:36:55;;;;;;;9.25;7.03;;;;;;;;;;5010248;28;20034;-71
2023/03/17 06:39:21;;;;;;;7.53;5.15;;;;;;;;;;5012911;28;20077;-73
2023/03/17 06:41:47;;;;;;;4.55;3.33;;;;;;;;;;5011508;28;20419;-72
2023/03/17 06:44:13;;;;;;;6.65;4.25;;;;;;;;;;5012375;28;20129;-72
2023/03/17 06:46:40;;;;;;;5.90;3.33;;;;;;;;;;5012752;28;20034;-72
2023/03/17 06:49:06;;;;;;;4.72;2.97;;;;;;;;;;5013187;28;20021;-72
2023/03/17 06:51:35;;;;;;;4.22;3.00;;;;;;;;;;5015478;28;20527;-73
2023/03/17 06:54:01;;;;;;;5.25;3.38;;;;;;;;;;5012805;28;20493;-73
2023/03/17 06:56:26;;;;;;;3.35;2.45;;;;;;;;;;5013425;28;20061;-75
2023/03/17 06:58:52;;;;;;;4.75;2.85;;;;;;;;;;5012917;28;20447;-72
2023/03/17 07:01:18;;;;;;;5.70;3.40;;;;;;;;;;5013846;28;20156;-73
2023/03/17 07:03:44;;;;;;;5.07;3.10;;;;;;;;;;4979219;28;20061;-72
2023/03/17 07:06:10;;;;;;;3.47;2.58;;;;;;;;;;5009106;28;20578;-73
2023/03/17 07:08:35;;;;;;;5.05;2.90;;;;;;;;;;5011688;28;20522;-73
2023/03/17 07:11:03;;;;;;;9.32;4.18;;;;;;;;;;5012556;28;20436;-73
2023/03/17 07:13:34;;;;;;;10.45;4.57;;;;;;;;;;5012843;28;20100;-73
2023/03/17 07:16:01;;;;;;;27.40;6.82;;;;;;;;;;5012642;28;20037;-73
2023/03/17 07:18:30;;;;;;;4.78;3.45;;;;;;;;;;4994652;28;20101;-72
2023/03/17 07:20:57;;;;;;;4.78;2.90;;;;;;;;;;5012272;28;20684;-72
2023/03/17 07:23:23;;;;;;;6.63;3.22;;;;;;;;;;5012777;28;20026;-74
2023/03/17 07:25:49;;;;;;;5.25;3.50;;;;;;;;;;5012513;28;20439;-73
2023/03/17 07:28:15;;;;;;;6.70;2.67;;;;;;;;;;5012371;28;20060;-74
2023/03/17 07:30:45;;;;;;;3.58;2.53;;;;;;;;;;5012519;28;20033;-73
2023/03/17 07:33:16;;;;;;;3.15;2.22;;;;;;;;;;5010544;28;20037;-72
2023/03/17 07:35:43;;;;;;;5.57;2.45;;;;;;;;;;5012305;28;20038;-73
2023/03/17 07:38:10;;;;;;;3.40;2.50;;;;;;;;;;5011677;28;20488;-73
2023/03/17 07:40:37;;;;;;;6.15;3.72;;;;;;;;;;4997646;28;20040;-72
2023/03/17 07:43:03;;;;;;;7.50;5.43;;;;;;;;;;5017974;28;20045;-71
2023/03/17 07:45:30;;;;;;;4.60;4.05;;;;;;;;;;5011436;28;20037;-71
2023/03/17 07:47:56;;;;;;;3.70;2.53;;;;;;;;;;5003957;28;20481;-71
2023/03/17 07:50:22;;;;;;;29.30;3.70;;;;;;;;;;5012107;28;20034;-72
2023/03/17 07:52:47;;;;;;;7.28;2.30;;;;;;;;;;5011721;28;20025;-74
2023/03/17 07:55:13;;;;;;;4.63;2.20;;;;;;;;;;5012028;28;20037;-72
2023/03/17 07:57:40;;;;;;;2.92;2.10;;;;;;;;;;5011337;28;20030;-72
2023/03/17 08:00:12;;;;;;;4.78;2.10;;;;;;;;;;5011250;28;20152;-72
2023/03/17 08:02:38;;;;;;;7.57;2.33;;;;;;;;;;5011526;28;20033;-71
2023/03/17 08:05:06;;;;;;;3.95;2.10;;;;;;;;;;5011905;28;20026;-71
2023/03/17 08:07:33;;;;;;;32.20;4.28;;;;;;;;;;5012032;28;20383;-71
2023/03/17 08:09:59;;;;;;;6.00;1.88;;;;;;;;;;5011648;28;20022;-72
2023/03/17 08:12:25;;;;;;;3.20;2.03;;;;;;;;;;4994688;28;20084;-72
2023/03/17 08:14:51;;;;;;;22.38;3.17;;;;;;;;;;5009624;28;20022;-73
2023/03/17 08:17:17;;;;;;;7.65;3.67;;;;;;;;;;5009367;28;20113;-71
2023/03/17 08:19:43;;;;;;;11.25;2.80;;;;;;;;;;5011266;28;20161;-71
2023/03/17 08:22:09;;;;;;;4.85;2.67;;;;;;;;;;5011323;28;20037;-71
2023/03/17 08:24:36;;;;;;;8.88;2.88;;;;;;;;;;4993339;28;20516;-72
2023/03/17 08:27:02;;;;;;;12.73;3.83;;;;;;;;;;5011253;28;20044;-72
2023/03/17 08:29:29;;;;;;;4.38;3.00;;;;;;;;;;5010234;28;20034;-72
2023/03/17 08:31:56;;;;;;;10.82;3.10;;;;;;;;;;5011512;28;20037;-71
2023/03/17 08:34:23;;;;;;;15.32;3.50;;;;;;;;;;5011453;28;20057;-72
2023/03/17 08:36:50;;;;;;;20.38;5.38;;;;;;;;;;5011033;28;20053;-72
2023/03/17 08:39:16;;;;;;;27.88;5.97;;;;;;;;;;5010326;28;20029;-72
2023/03/17 08:41:42;;;;;;;25.52;4.68;;;;;;;;;;5010339;28;20038;-72
2023/03/17 08:44:08;;;;;;;26.45;4.90;;;;;;;;;;4993239;28;20506;-73
2023/03/17 08:46:35;;;;;;;10.93;4.00;;;;;;;;;;5011280;28;20045;-71
2023/03/17 08:49:02;;;;;;;2.80;2.15;;;;;;;;;;5027237;28;20026;-73
2023/03/17 08:51:31;;;;;;;11.27;3.58;;;;;;;;;;5011879;28;20060;-71
2023/03/17 08:53:57;;;;;;;15.43;4.50;;;;;;;;;;5011821;28;20034;-74
2023/03/17 08:56:23;;;;;;;18.27;4.00;;;;;;;;;;5011505;28;20321;-72
2023/03/17 08:58:49;;;;;;;15.40;4.13;;;;;;;;;;4993584;28;20037;-73
2023/03/17 09:01:17;;;;;;;17.17;3.92;;;;;;;;;;5013357;28;20514;-73
2023/03/17 09:03:44;;;;;;;15.77;2.92;;;;;;;;;;5013088;28;20053;-71
2023/03/17 09:06:11;;;;;;;10.25;3.50;;;;;;;;;;5015074;28;20048;-72
2023/03/17 09:08:38;;;;;;;10.70;3.55;;;;;;;;;;4996905;28;20026;-71
2023/03/17 09:11:09;;;;;;;6.00;2.50;;;;;;;;;;5014984;28;20376;-71
2023/03/17 09:13:37;;;;;;;9.23;2.83;;;;;;;;;;5014878;28;20048;-72
2023/03/17 09:16:04;;;;;;;27.92;6.15;;;;;;;;;;5014502;28;20307;-72
2023/03/17 09:18:31;;;;;;;8.23;2.33;;;;;;;;;;5016879;28;20061;-73
2023/03/17 09:20:58;;;;;;;6.32;2.70;;;;;;;;;;5035047;28;20029;-73
2023/03/17 09:23:24;;;;;;;6.90;2.97;;;;;;;;;;5034382;28;20045;-73
2023/03/17 09:25:51;;;;;;;5.75;2.72;;;;;;;;;;5034762;28;20049;-73
2023/03/17 09:28:18;;;;;;;9.90;2.75;;;;;;;;;;5017233;28;20067;-73
2023/03/17 09:30:44;;;;;;;10.90;3.65;;;;;;;;;;5035033;28;20157;-72
2023/03/17 09:33:12;;;;;;;7.78;2.65;;;;;;;;;;5034735;28;20103;-72
2023/03/17 09:35:39;;;;;;;7.13;2.95;;;;;;;;;;5034352;28;20021;-73
2023/03/17 09:38:06;;;;;;;15.07;3.30;;;;;;;;;;5034583;28;20487;-72
2023/03/17 09:41:10;;;;;;;7.80;2.88;;;;;;;;;;5019082;28;20018;-71
2023/03/17 09:44:05;;;;;;;5.85;3.15;;;;;;;;;;5014292;28;20045;-72
2023/03/17 09:46:31;;;;;;;14.88;4.78;;;;;;;;;;4999481;28;20045;-72
2023/03/17 09:49:02;;;;;;;8.32;3.35;;;;;;;;;;5014380;28;20503;-72
2023/03/17 09:51:31;;;;;;;27.92;6.68;;;;;;;;;;5014057;28;20030;-71
2023/03/17 09:54:14;;;;;;;7.47;2.88;;;;;;;;;;5013155;28;20259;-71
2023/03/17 09:56:45;;;;;;;10.60;3.58;;;;;;;;;;5014551;28;20498;-70
2023/03/17 09:59:28;;;;;;;6.90;3.75;;;;;;;;;;5014373;28;20124;-71
2023/03/17 10:01:54;;;;;;;4.63;2.40;;;;;;;;;;5009681;28;20057;-71
2023/03/17 10:04:20;;;;;;;15.00;3.75;;;;;;;;;;5020247;28;20018;-72
2023/03/17 10:06:48;;;;;;;7.63;3.20;;;;;;;;;;5014111;28;20038;-72
2023/03/17 10:09:15;;;;;;;5.15;2.60;;;;;;;;;;5013701;28;20014;-70
2023/03/17 10:11:45;;;;;;;3.90;2.80;;;;;;;;;;5007670;28;20121;-71
2023/03/17 10:14:37;;;;;;;5.85;2.75;;;;;;;;;;5034056;28;20060;-70
2023/03/17 10:17:21;;;;;;;7.53;2.85;;;;;;;;;;5033476;28;20096;-71
2023/03/17 10:19:49;;;;;;;2.70;1.80;;;;;;;;;;5033198;28;20128;-71
2023/03/17 10:22:15;;;;;;;7.88;2.72;;;;;;;;;;5033564;28;20651;-71
2023/03/17 10:24:47;;;;;;;3.30;1.92;;;;;;;;;;5033640;28;20140;-70
2023/03/17 10:27:15;;;;;;;4.90;2.22;;;;;;;;;;5033484;28;20045;-71
2023/03/17 10:29:40;;;;;;;6.45;2.78;;;;;;;;;;5015649;28;20029;-71
2023/03/17 10:32:12;;;;;;;7.10;2.75;;;;;;;;;;5033583;28;20084;-71
2023/03/17 10:34:40;;;;;;;5.22;2.03;;;;;;;;;;5033547;28;20033;-70
2023/03/17 10:37:16;;;;;;;4.82;2.00;;;;;;;;;;5033347;28;20022;-70
2023/03/17 10:39:50;;;;;;;4.03;2.00;;;;;;;;;;4998009;28;20033;-71
2023/03/17 10:42:23;;;;;;;3.90;2.45;;;;;;;;;;5013286;28;20030;-71
2023/03/17 10:44:57;;;;;;;7.60;3.20;;;;;;;;;;5020679;28;20042;-71
2023/03/17 10:47:36;;;;;;;4.70;2.42;;;;;;;;;;5018443;28;20729;-71
2023/03/17 10:50:31;;;;;;;8.40;2.88;;;;;;;;;;5019473;28;20074;-71
2023/03/17 10:53:17;;;;;;;5.30;2.47;;;;;;;;;;5025701;28;20034;-71
2023/03/17 10:55:48;;;;;;;6.70;3.03;;;;;;;;;;5015202;28;20046;-71
2023/03/17 10:58:24;;;;;;;9.27;3.33;;;;;;;;;;5012369;28;20042;-72
2023/03/17 11:00:58;;;;;;;6.22;2.80;;;;;;;;;;5001930;28;20037;-71
2023/03/17 11:03:28;;;;;;;5.43;2.58;;;;;;;;;;5018553;28;20048;-70
2023/03/17 11:06:03;;;;;;;6.90;3.20;;;;;;;;;;5001606;28;20086;-72
2023/03/17 11:08:50;;;;;;;13.38;4.07;;;;;;;;;;5012504;28;20388;-70
2023/03/17 11:11:33;;;;;;;4.10;2.35;;;;;;;;;;5005384;28;20029;-71
2023/03/17 11:14:04;;;;;;;5.72;2.50;;;;;;;;;;4995170;28;20048;-70
2023/03/17 11:16:36;;;;;;;3.38;1.90;;;;;;;;;;5012561;28;20137;-72
2023/03/17 11:19:10;;;;;;;11.52;2.80;;;;;;;;;;5012594;28;20041;-72
2023/03/17 11:22:06;;;;;;;9.98;2.78;;;;;;;;;;5012502;28;20042;-72
2023/03/17 11:24:40;;;;;;;3.95;2.58;;;;;;;;;;5011996;28;20053;-69
2023/03/17 11:27:29;;;;;;;3.10;2.10;;;;;;;;;;5007792;28;20154;-70
2023/03/17 11:30:01;;;;;;;4.47;2.05;;;;;;;;;;4995984;28;20113;-71
2023/03/17 11:32:46;;;;;;;3.88;2.10;;;;;;;;;;5012480;28;20029;-70
2023/03/17 11:35:37;;;;;;;3.13;2.22;;;;;;;;;;5011406;28;20026;-69
2023/03/17 11:38:14;;;;;;;6.78;2.65;;;;;;;;;;5010905;28;20050;-70
2023/03/17 11:41:17;;;;;;;3.88;2.20;;;;;;;;;;5012185;28;20045;-71
2023/03/17 11:43:46;;;;;;;5.93;2.60;;;;;;;;;;5012399;28;20029;-71
2023/03/17 11:46:18;;;;;;;8.13;2.67;;;;;;;;;;5012081;28;20117;-70
2023/03/17 11:49:10;;;;;;;7.20;2.35;;;;;;;;;;5011935;28;20043;-71
2023/03/17 11:51:55;;;;;;;7.55;2.50;;;;;;;;;;5027267;28;20049;-69
2023/03/17 11:54:29;;;;;;;3.90;2.13;;;;;;;;;;5030741;28;20045;-69
2023/03/17 11:57:02;;;;;;;6.53;2.10;;;;;;;;;;5032112;28;20380;-70
2023/03/17 11:59:32;;;;;;;8.70;2.85;;;;;;;;;;5032163;28;20034;-71
2023/03/17 12:02:24;;;;;;;5.10;1.83;;;;;;;;;;5026939;28;20480;-70
2023/03/17 12:05:00;;;;;;;5.55;1.98;;;;;;;;;;5025251;28;20037;-71
2023/03/17 12:07:36;;;;;;;5.13;1.90;;;;;;;;;;5032045;28;20033;-71
2023/03/17 12:10:15;;;;;;;4.35;1.75;;;;;;;;;;5010585;28;20045;-71
2023/03/17 12:12:50;;;;;;;6.88;1.77;;;;;;;;;;5014455;28;20372;-71
2023/03/17 12:15:56;;;;;;;11.68;5.20;;;;;;;;;;5008138;28;20117;-70
2023/03/17 12:18:31;;;;;;;4.82;2.80;;;;;;;;;;5009700;28;20042;-71
2023/03/17 12:21:04;;;;;;;5.53;2.03;;;;;;;;;;4992462;28;20050;-71
2023/03/17 12:23:51;;;;;;;3.30;1.70;;;;;;;;;;5008920;28;20396;-70
2023/03/17 12:27:02;;;;;;;2.38;1.70;;;;;;;;;;5027955;28;20030;-71
2023/03/17 12:29:54;;;;;;;5.68;2.10;;;;;;;;;;5005690;28;20028;-71
2023/03/17 12:32:30;;;;;;;6.90;2.00;;;;;;;;;;5011072;28;20042;-71
2023/03/17 12:35:00;;;;;;;9.45;2.22;;;;;;;;;;5009267;28;20038;-72
2023/03/17 12:37:29;;;;;;;4.80;2.33;;;;;;;;;;5011490;28;20053;-72
2023/03/17 12:40:09;;;;;;;9.18;2.47;;;;;;;;;;5011801;28;20351;-71
2023/03/17 12:42:37;;;;;;;9.80;3.00;;;;;;;;;;5012100;28;20037;-73
2023/03/17 12:45:19;;;;;;;7.20;2.90;;;;;;;;;;5009527;28;20117;-70
2023/03/17 12:47:57;;;;;;;2.72;1.95;;;;;;;;;;5008917;28;20108;-70
2023/03/17 12:50:37;;;;;;;12.00;1.98;;;;;;;;;;5020252;28;20029;-70
2023/03/17 12:53:32;;;;;;;3.47;1.70;;;;;;;;;;4991689;28;20041;-71
2023/03/17 12:56:17;;;;;;;3.42;1.80;;;;;;;;;;5010753;28;20097;-72
2023/03/17 12:58:47;;;;;;;5.70;2.05;;;;;;;;;;5021647;28;20089;-71
2023/03/17 13:01:28;;;;;;;9.45;3.55;;;;;;;;;;5010809;28;20114;-70
2023/03/17 13:04:12;;;;;;;7.43;2.22;;;;;;;;;;5004676;28;20495;-72
2023/03/17 13:06:45;;;;;;;3.88;2.20;;;;;;;;;;5009038;28;20069;-72
2023/03/17 13:09:46;;;;;;;4.13;2.28;;;;;;;;;;4992798;28;20400;-72
2023/03/17 13:12:53;;;;;;;13.20;3.10;;;;;;;;;;4945617;29;20035;-73
2023/03/17 13:15:38;;;;;;;2.85;1.85;;;;;;;;;;5003955;28;20032;-71
2023/03/17 13:18:14;;;;;;;6.00;2.22;;;;;;;;;;5010130;28;20048;-72
2023/03/17 13:21:04;;;;;;;3.92;2.00;;;;;;;;;;5009955;28;20123;-71
2023/03/17 13:23:39;;;;;;;6.20;2.08;;;;;;;;;;5002934;28;20049;-70
2023/03/17 13:26:05;;;;;;;4.18;2.05;;;;;;;;;;5007752;28;20403;-73
2023/03/17 13:28:42;;;;;;;3.03;1.95;;;;;;;;;;5009428;28;20120;-71
2023/03/17 13:31:27;;;;;;;2.70;1.50;;;;;;;;;;5011349;28;20046;-72
2023/03/17 13:33:55;;;;;;;3.25;1.85;;;;;;;;;;5024165;28;20045;-72
2023/03/17 13:37:11;;;;;;;2.88;1.90;;;;;;;;;;5023449;28;20046;-72
2023/03/17 13:39:37;;;;;;;;;;;;;;;;;;4993104;28;20045;-71
2023/03/17 13:42:26;;;;;;;3.25;1.90;;;;;;;;;;5011050;28;19925;-71
2023/03/17 13:45:26;;;;;;;3.00;1.75;;;;;;;;;;5004787;28;20204;-72
2023/03/17 13:47:54;;;;;;;3.28;1.70;;;;;;;;;;5013542;28;20038;-71
2023/03/17 13:50:30;;;;;;;3.10;1.70;;;;;;;;;;5014743;28;20503;-73
2023/03/17 13:53:03;;;;;;;4.95;2.08;;;;;;;;;;4997818;28;20030;-72
2023/03/17 13:55:35;;;;;;;3.17;1.77;;;;;;;;;;5014757;28;20049;-71
2023/03/17 13:58:07;;;;;;;2.45;1.70;;;;;;;;;;5014499;28;20114;-71
2023/03/17 14:00:36;;;;;;;4.13;1.40;;;;;;;;;;5014516;28;20546;-71
2023/03/17 14:03:13;;;;;;;2.20;1.40;;;;;;;;;;4996994;28;20022;-71
2023/03/17 14:05:40;;;;;;;2.15;1.45;;;;;;;;;;5014525;28;20064;-74
2023/03/17 14:08:15;;;;;;;2.60;1.60;;;;;;;;;;5014111;28;20032;-73
2023/03/17 14:10:51;;;;;;;2.35;1.50;;;;;;;;;;5014439;28;20029;-73
2023/03/17 14:13:24;;;;;;;6.10;1.83;;;;;;;;;;5014510;28;20168;-72
2023/03/17 14:16:14;;;;;;;3.80;2.10;;;;;;;;;;4997281;28;20048;-73
2023/03/17 14:18:56;;;;;;;3.33;1.73;;;;;;;;;;5013702;28;20077;-72
2023/03/17 14:21:30;;;;;;;3.15;1.58;;;;;;;;;;5014051;28;20050;-72
2023/03/17 14:24:02;;;;;;;1.92;1.30;;;;;;;;;;5014313;28;20042;-74
2023/03/17 14:26:31;;;;;;;2.08;1.40;;;;;;;;;;5014469;28;20376;-73
2023/03/17 14:29:03;;;;;;;2.88;1.60;;;;;;;;;;5014425;28;20345;-73
2023/03/17 14:31:31;;;;;;;3.43;1.77;;;;;;;;;;5029490;28;20034;-72
2023/03/17 14:33:59;;;;;;;5.03;3.22;;;;;;;;;;5013977;28;20325;-72
2023/03/17 14:36:27;;;;;;;4.35;2.55;;;;;;;;;;5014163;28;20060;-72
2023/03/17 14:38:55;;;;;;;5.05;2.88;;;;;;;;;;5013669;28;20104;-74
2023/03/17 14:41:25;;;;;;;4.35;2.47;;;;;;;;;;5007392;28;20488;-73
2023/03/17 14:43:56;;;;;;;2.60;1.60;;;;;;;;;;5011215;28;20045;-73
2023/03/17 14:46:35;;;;;;;2.35;1.58;;;;;;;;;;5012754;28;20029;-73
2023/03/17 14:49:08;;;;;;;2.92;2.00;;;;;;;;;;5011589;28;20042;-73
2023/03/17 14:51:36;;;;;;;3.70;1.73;;;;;;;;;;5013113;28;20060;-73
2023/03/17 14:54:16;;;;;;;3.13;1.48;;;;;;;;;;5013196;28;20029;-72
2023/03/17 14:56:46;;;;;;;2.85;1.83;;;;;;;;;;5011178;28;20456;-72
2023/03/17 14:59:23;;;;;;;5.25;1.90;;;;;;;;;;5011372;28;20038;-72
2023/03/17 15:01:55;;;;;;;2.05;1.40;;;;;;;;;;5009690;28;20377;-73
2023/03/17 15:04:24;;;;;;;3.05;1.88;;;;;;;;;;5011432;28;20038;-73